Portada
METAR-TAF:

METAR-TAF

Aeroports :

Daegu, Corea del Sud

latitud: 35-54N, longitud: 128-39E, altitud: 35 m

Observació

L'informe es va fer fa 42 minuts, a les 13:00 UTC
Vent 2 kt del Est/Nord-Est
Temperatura 19°C
Humitat 94%
Pressió 1010 hPa
Visibilitat: 8000 m
Escasses núvols a una alçada de 1500 ft
Cel ennuvolat a una alçada de 6000 ft
Cel cobert a una alçada de 10000 ft
pluja

METAR: RKTN 031300Z 07002KT 8000 -RA FEW015 BKN060 OVC100 19/18 Q1010 RMK CIG060 SLP106 8/72/ 9/71/

Hora: 22:42 (13:42 UTC)

Pronòstic

L'informe es va fer fa 2 hores i 42 minuts, a les 11:00 UTC
Pronòstic vàlid del 03 a les 12 UTC al 04 a les 18 UTC
Vent 6 kt del Sud-Est
Visibilitat 10 km o més
Núvols disperses a una alçada de 3000 ft
Cel ennuvolat a una alçada de 8000 ft
pluja
Evolucionant progressivament
l' 03 a les 17 UTC al 03 a les 18 UTC

TAF: RKTN 031100Z 0312/0418 13006KT 9999 -RA SCT030 BKN080 TN17/0321Z TX30/0406Z BECMG 0317/0318 NSW

Observacions i pronòstics meteorològics de més de 4000 aeroports (METAR i TAF).

Les estacions disponibles són els punts grocs i vermells al mapa.

Posi el ratolí al punt desitjat per veure el nom de l'estació.

Feu clic per veure les observacions i els pronòstics meteorològics.

Per canviar el mapa: feu clic els botons verds amb una creu de color negre per apropar; al botó verd amb un guió per allunyar la imatge; o en les fletxes verdes per a mapes adjacents.


METAR-TAF: